createdAt,value
2023-03-12T00:03:33.452Z,-0.97
2023-03-12T00:06:21.732Z,-1.04
2023-03-12T00:09:09.299Z,-1.07
2023-03-12T00:11:56.455Z,-0.98
2023-03-12T00:14:43.484Z,-1.11
2023-03-12T00:17:30.653Z,-1.17
2023-03-12T00:20:18.499Z,-1.22
2023-03-12T00:23:05.728Z,-1.23
2023-03-12T00:25:52.811Z,-1.30
2023-03-12T00:28:40.838Z,-1.37
2023-03-12T00:31:32.838Z,-1.36
2023-03-12T00:34:20.043Z,-1.49
2023-03-12T00:37:08.247Z,-1.46
2023-03-12T00:39:55.380Z,-1.64
2023-03-12T00:42:42.425Z,-1.71
2023-03-12T00:45:29.489Z,-1.74
2023-03-12T00:48:16.544Z,-1.96
2023-03-12T00:51:03.873Z,-1.97
2023-03-12T00:53:50.960Z,-2.03
2023-03-12T00:56:38.033Z,-2.15
2023-03-12T00:59:25.102Z,-2.15
2023-03-12T01:02:12.271Z,-2.21
2023-03-12T01:04:59.311Z,-2.26
2023-03-12T01:07:46.585Z,-2.37
2023-03-12T01:10:33.751Z,-2.37
2023-03-12T01:13:21.499Z,-2.38
2023-03-12T01:16:08.732Z,-2.46
2023-03-12T01:19:00.424Z,-2.38
2023-03-12T01:21:47.536Z,-2.36
2023-03-12T01:24:34.621Z,-2.40
2023-03-12T01:27:21.698Z,-2.39
2023-03-12T01:30:10.333Z,-2.34
2023-03-12T01:32:57.608Z,-2.35
2023-03-12T01:35:45.093Z,-2.38
2023-03-12T01:38:32.259Z,-2.57
2023-03-12T01:41:22.822Z,-2.36
2023-03-12T01:44:13.658Z,-2.39
2023-03-12T01:47:00.805Z,-2.41
2023-03-12T01:49:50.500Z,-2.48
2023-03-12T01:52:39.772Z,-2.23
2023-03-12T01:55:26.925Z,-2.10
2023-03-12T01:58:14.349Z,-2.09
2023-03-12T02:01:01.504Z,-1.95
2023-03-12T02:03:52.568Z,-1.83
2023-03-12T02:06:46.586Z,-1.90
2023-03-12T02:09:38.606Z,-1.75
2023-03-12T02:12:25.680Z,-1.75
2023-03-12T02:15:13.127Z,-1.82
2023-03-12T02:18:02.176Z,-1.84
2023-03-12T02:21:26.458Z,-1.69
2023-03-12T02:24:34.495Z,-1.65
2023-03-12T02:27:22.336Z,-1.71
2023-03-12T02:30:10.808Z,-1.69
2023-03-12T02:33:05.303Z,-1.62
2023-03-12T02:35:53.222Z,-1.71
2023-03-12T02:38:46.626Z,-1.70
2023-03-12T02:41:38.062Z,-1.73
2023-03-12T02:44:33.607Z,-1.77
2023-03-12T02:47:20.643Z,-1.80
2023-03-12T02:50:08.623Z,-1.75
2023-03-12T02:52:55.669Z,-1.76
2023-03-12T02:55:42.733Z,-1.82
2023-03-12T02:58:30.350Z,-1.83
2023-03-12T03:01:18.335Z,-1.91
2023-03-12T03:04:07.872Z,-1.97
2023-03-12T03:06:55.093Z,-1.97
2023-03-12T03:09:42.148Z,-2.01
2023-03-12T03:12:29.344Z,-2.08
2023-03-12T03:15:16.398Z,-2.23
2023-03-12T03:18:04.098Z,-2.31
2023-03-12T03:20:58.909Z,-2.37
2023-03-12T03:23:48.410Z,-2.35
2023-03-12T03:26:35.594Z,-2.53
2023-03-12T03:29:22.797Z,-2.43
2023-03-12T03:32:09.853Z,-2.47
2023-03-12T03:34:57.024Z,-2.40
2023-03-12T03:37:44.374Z,-2.41
2023-03-12T03:40:31.553Z,-2.61
2023-03-12T03:43:18.599Z,-2.68
2023-03-12T03:46:06.632Z,-2.80
2023-03-12T03:48:53.687Z,-2.85
2023-03-12T03:51:42.804Z,-2.89
2023-03-12T03:54:31.282Z,-2.83
2023-03-12T03:57:18.355Z,-2.91
2023-03-12T04:00:10.157Z,-2.90
2023-03-12T04:02:57.290Z,-2.89
2023-03-12T04:05:45.507Z,-3.02
2023-03-12T04:08:35.619Z,-3.03
2023-03-12T04:11:23.254Z,-3.10
2023-03-12T04:14:13.383Z,-3.12
2023-03-12T04:17:00.453Z,-3.32
2023-03-12T04:19:47.618Z,-3.33
2023-03-12T04:22:34.981Z,-3.29
2023-03-12T04:25:22.069Z,-3.43
2023-03-12T04:28:09.180Z,-3.54
2023-03-12T04:31:02.610Z,-3.57
2023-03-12T04:33:49.652Z,-3.57
2023-03-12T04:36:36.760Z,-3.52
2023-03-12T04:39:23.850Z,-3.67
2023-03-12T04:42:11.702Z,-3.58
2023-03-12T04:44:58.714Z,-3.59
2023-03-12T04:47:45.998Z,-3.46
2023-03-12T04:50:33.045Z,-3.49
2023-03-12T04:53:21.088Z,-3.58
2023-03-12T04:56:08.179Z,-3.72
2023-03-12T04:58:55.535Z,-3.78
2023-03-12T05:01:43.275Z,-3.65
2023-03-12T05:04:32.528Z,-3.68
2023-03-12T05:07:20.648Z,-3.53
2023-03-12T05:10:08.347Z,-3.51
2023-03-12T05:12:55.388Z,-3.49
2023-03-12T05:15:42.999Z,-3.55
2023-03-12T05:18:30.050Z,-3.48
2023-03-12T05:21:19.923Z,-3.48
2023-03-12T05:24:07.406Z,-3.53
2023-03-12T05:26:54.509Z,-3.40
2023-03-12T05:29:41.561Z,-3.19
2023-03-12T05:32:28.689Z,-3.44
2023-03-12T05:35:15.820Z,-3.56
2023-03-12T05:38:02.987Z,-3.87
2023-03-12T05:40:58.451Z,-3.76
2023-03-12T05:43:45.545Z,-3.78
2023-03-12T05:46:32.583Z,-3.88
2023-03-12T05:49:20.757Z,-3.67
2023-03-12T05:52:08.611Z,-3.77
2023-03-12T05:54:55.833Z,-3.66
2023-03-12T05:57:42.872Z,-3.57
2023-03-12T06:00:30.821Z,-3.69
2023-03-12T06:03:17.976Z,-3.80
2023-03-12T06:06:05.305Z,-3.84
2023-03-12T06:08:52.785Z,-3.79
2023-03-12T06:11:39.971Z,-3.82
2023-03-12T06:14:27.029Z,-3.73
2023-03-12T06:17:14.146Z,-3.68
2023-03-12T06:20:01.243Z,-3.58
2023-03-12T06:22:48.407Z,-3.62
2023-03-12T06:25:37.749Z,-3.30
2023-03-12T06:28:24.966Z,-3.25
2023-03-12T06:31:12.589Z,-3.30
2023-03-12T06:33:59.701Z,-3.42
2023-03-12T06:36:46.832Z,-3.11
2023-03-12T06:39:33.966Z,-3.06
2023-03-12T06:42:22.653Z,-3.02
2023-03-12T06:45:15.737Z,-2.79
2023-03-12T06:48:02.914Z,-2.67
2023-03-12T06:50:50.633Z,-2.46
2023-03-12T06:53:40.435Z,-2.27
2023-03-12T06:56:30.861Z,-2.17
2023-03-12T06:59:18.559Z,-1.89
2023-03-12T07:02:05.927Z,-1.82
2023-03-12T07:04:53.056Z,-1.62
2023-03-12T07:07:40.212Z,-1.52
2023-03-12T07:10:29.563Z,-1.28
2023-03-12T07:13:17.146Z,-1.17
2023-03-12T07:16:04.518Z,-1.22
2023-03-12T07:18:51.702Z,-1.14
2023-03-12T07:21:39.072Z,-1.01
2023-03-12T07:24:26.227Z,-0.47
2023-03-12T07:27:13.403Z,-0.08
2023-03-12T07:30:00.548Z,0.21
2023-03-12T07:32:47.752Z,0.64
2023-03-12T07:35:37.014Z,1.18
2023-03-12T07:38:24.281Z,1.64
2023-03-12T07:41:17.334Z,2.15
2023-03-12T07:44:09.584Z,2.60
2023-03-12T07:47:02.968Z,3.02
2023-03-12T07:49:56.908Z,3.36
2023-03-12T07:52:52.021Z,3.61
2023-03-12T07:55:39.261Z,3.69
2023-03-12T07:58:32.872Z,3.89
2023-03-12T08:01:20.063Z,4.12
2023-03-12T08:04:07.224Z,4.31
2023-03-12T08:06:54.339Z,4.52
2023-03-12T08:09:42.801Z,4.80
2023-03-12T08:12:30.218Z,4.87
2023-03-12T08:15:17.475Z,4.89
2023-03-12T08:18:04.635Z,5.11
2023-03-12T08:20:58.018Z,5.04
2023-03-12T08:23:47.412Z,5.15
2023-03-12T08:26:35.648Z,5.09
2023-03-12T08:29:22.792Z,5.16
2023-03-12T08:32:11.012Z,5.19
2023-03-12T08:34:58.236Z,5.56
2023-03-12T08:37:45.313Z,5.82
2023-03-12T08:40:32.440Z,5.89
2023-03-12T08:43:19.541Z,5.85
2023-03-12T08:46:06.782Z,5.42
2023-03-12T08:48:55.429Z,4.90
2023-03-12T08:51:42.633Z,4.82
2023-03-12T08:54:30.032Z,4.84
2023-03-12T08:57:18.443Z,4.85
2023-03-12T09:00:11.536Z,5.11
2023-03-12T09:02:58.749Z,5.64
2023-03-12T09:05:46.043Z,6.23
2023-03-12T09:08:34.172Z,6.53
2023-03-12T09:11:21.401Z,6.52
2023-03-12T09:14:42.686Z,6.78
2023-03-12T09:17:16.005Z,6.58
2023-03-12T09:20:07.436Z,6.85
2023-03-12T09:22:54.494Z,7.32
2023-03-12T09:25:45.545Z,7.56
2023-03-12T09:28:32.691Z,7.93
2023-03-12T09:31:19.917Z,8.72
2023-03-12T09:34:07.194Z,9.11
2023-03-12T09:36:54.437Z,8.86
2023-03-12T09:39:41.609Z,8.33
2023-03-12T09:42:47.989Z,7.47
2023-03-12T09:45:43.570Z,8.07
2023-03-12T09:48:37.677Z,7.99
2023-03-12T09:51:35.115Z,8.14
2023-03-12T09:54:38.479Z,8.28
2023-03-12T09:57:29.112Z,8.79
2023-03-12T10:00:23.070Z,8.98
2023-03-12T10:03:42.313Z,8.13
2023-03-12T10:07:02.117Z,8.38
2023-03-12T10:10:24.463Z,7.93
2023-03-12T10:13:17.943Z,7.89
2023-03-12T10:16:29.881Z,7.45
2023-03-12T10:19:31.972Z,8.04
2023-03-12T10:22:36.815Z,8.39
2023-03-12T10:25:51.182Z,7.76
2023-03-12T10:28:44.283Z,7.55
2023-03-12T10:31:37.553Z,7.42
2023-03-12T10:34:39.322Z,7.10
2023-03-12T10:37:39.095Z,6.44
2023-03-12T10:40:29.991Z,7.05
2023-03-12T10:43:17.041Z,7.65
2023-03-12T10:46:39.294Z,8.31
2023-03-12T10:49:30.346Z,8.78
2023-03-12T10:52:20.582Z,8.95
2023-03-12T10:55:29.968Z,8.83
2023-03-12T10:58:24.713Z,8.68
2023-03-12T11:01:25.614Z,8.41
2023-03-12T11:04:30.498Z,8.12
2023-03-12T11:07:20.740Z,8.39
2023-03-12T11:10:07.809Z,8.45
2023-03-12T11:13:06.021Z,7.84
2023-03-12T11:15:54.254Z,8.17
2023-03-12T11:18:54.704Z,8.01
2023-03-12T11:21:56.344Z,8.22
2023-03-12T11:25:01.163Z,8.37
2023-03-12T11:27:53.952Z,8.31
2023-03-12T11:30:41.356Z,8.38
2023-03-12T11:33:28.956Z,8.77
2023-03-12T11:36:31.760Z,9.17
2023-03-12T11:39:46.048Z,8.70
2023-03-12T11:42:54.112Z,9.12
2023-03-12T11:46:02.867Z,8.85
2023-03-12T11:49:08.910Z,8.56
2023-03-12T11:52:18.801Z,8.62
2023-03-12T11:55:37.552Z,8.79
2023-03-12T11:58:45.150Z,8.76
2023-03-12T12:01:52.048Z,9.05
2023-03-12T12:05:04.281Z,8.68
2023-03-12T12:07:57.100Z,9.21
2023-03-12T12:11:07.556Z,8.55
2023-03-12T12:14:13.584Z,8.64
2023-03-12T12:17:36.490Z,9.02
2023-03-12T12:20:56.750Z,9.24
2023-03-12T12:24:25.334Z,8.91
2023-03-12T12:27:37.061Z,9.14
2023-03-12T12:30:55.056Z,8.25
2023-03-12T12:34:06.879Z,8.34
2023-03-12T12:37:12.849Z,8.28
2023-03-12T12:40:27.368Z,8.11
2023-03-12T12:43:38.117Z,8.48
2023-03-12T12:46:49.123Z,8.81
2023-03-12T12:49:47.766Z,9.00
2023-03-12T12:52:35.239Z,9.31
2023-03-12T12:55:53.796Z,9.20
2023-03-12T12:59:03.581Z,9.69
2023-03-12T13:01:52.923Z,9.67
2023-03-12T13:04:43.173Z,9.07
2023-03-12T13:07:34.889Z,9.47
2023-03-12T13:10:34.569Z,9.06
2023-03-12T13:13:26.858Z,8.85
2023-03-12T13:16:36.945Z,8.56
2023-03-12T13:19:32.593Z,8.43
2023-03-12T13:22:25.859Z,8.65
2023-03-12T13:25:45.965Z,8.02
2023-03-12T13:28:38.945Z,8.18
2023-03-12T13:31:29.786Z,8.24
2023-03-12T13:34:20.094Z,8.35
2023-03-12T13:37:20.181Z,8.64
2023-03-12T13:40:27.386Z,8.48
2023-03-12T13:43:30.780Z,8.64
2023-03-12T13:46:29.084Z,8.82
2023-03-12T13:49:20.642Z,8.32
2023-03-12T13:52:22.701Z,8.43
2023-03-12T13:55:29.019Z,8.58
2023-03-12T13:58:25.702Z,8.62
2023-03-12T14:01:20.921Z,8.36
2023-03-12T14:04:17.787Z,7.89
2023-03-12T14:07:26.335Z,8.12
2023-03-12T14:10:22.672Z,8.17
2023-03-12T14:13:17.792Z,7.74
2023-03-12T14:16:11.290Z,7.80
2023-03-12T14:18:58.750Z,7.60
2023-03-12T14:21:49.469Z,7.45
2023-03-12T14:24:48.452Z,7.66
2023-03-12T14:27:37.013Z,7.61
2023-03-12T14:30:36.327Z,7.66
2023-03-12T14:33:26.613Z,7.46
2023-03-12T14:36:18.757Z,7.30
2023-03-12T14:39:37.111Z,7.79
2023-03-12T14:42:39.907Z,7.99
2023-03-12T14:45:27.869Z,8.17
2023-03-12T14:48:15.387Z,7.86
2023-03-12T14:51:05.850Z,7.39
2023-03-12T14:53:54.571Z,7.55
2023-03-12T14:56:44.884Z,7.55
2023-03-12T14:59:37.500Z,7.18
2023-03-12T15:02:26.414Z,7.01
2023-03-12T15:05:18.566Z,7.04
2023-03-12T15:08:06.632Z,7.26
2023-03-12T15:10:58.926Z,7.38
2023-03-12T15:13:47.534Z,6.99
2023-03-12T15:16:36.522Z,7.05
2023-03-12T15:19:29.276Z,7.12
2023-03-12T15:22:20.878Z,7.28
2023-03-12T15:25:35.987Z,7.36
2023-03-12T15:28:27.113Z,7.15
2023-03-12T15:31:21.205Z,7.22
2023-03-12T15:34:11.854Z,7.10
2023-03-12T15:37:04.988Z,6.56
2023-03-12T15:39:54.437Z,6.83
2023-03-12T15:42:46.556Z,6.80
2023-03-12T15:45:40.004Z,6.79
2023-03-12T15:48:41.228Z,6.56
2023-03-12T15:51:34.391Z,6.34
2023-03-12T15:54:28.100Z,6.32
2023-03-12T15:57:24.057Z,6.21
2023-03-12T16:00:14.278Z,6.11
2023-03-12T16:03:15.500Z,6.19
2023-03-12T16:06:02.929Z,6.31
2023-03-12T16:09:02.256Z,6.48
2023-03-12T16:11:53.735Z,6.64
2023-03-12T16:14:41.484Z,6.36
2023-03-12T16:17:32.914Z,6.49
2023-03-12T16:20:22.280Z,6.66
2023-03-12T16:23:10.486Z,6.59
2023-03-12T16:26:00.152Z,6.69
2023-03-12T16:28:49.090Z,6.52
2023-03-12T16:31:39.515Z,6.40
2023-03-12T16:34:29.419Z,6.27
2023-03-12T16:37:17.254Z,6.38
2023-03-12T16:40:06.807Z,5.99
2023-03-12T16:42:55.829Z,6.08
2023-03-12T16:45:47.560Z,5.85
2023-03-12T16:48:37.242Z,5.83
2023-03-12T16:51:25.740Z,5.92
2023-03-12T16:54:15.050Z,5.81
2023-03-12T16:57:02.628Z,5.59
2023-03-12T16:59:50.986Z,5.70
2023-03-12T17:02:39.214Z,5.65
2023-03-12T17:05:31.132Z,5.56
2023-03-12T17:08:20.015Z,5.53
2023-03-12T17:11:15.703Z,5.65
2023-03-12T17:14:14.469Z,5.38
2023-03-12T17:17:03.348Z,5.58
2023-03-12T17:19:53.405Z,5.72
2023-03-12T17:22:41.901Z,5.87
2023-03-12T17:25:33.633Z,5.72
2023-03-12T17:28:23.007Z,5.63
2023-03-12T17:31:11.364Z,5.70
2023-03-12T17:34:05.690Z,5.88
2023-03-12T17:36:55.161Z,5.70
2023-03-12T17:39:52.182Z,5.71
2023-03-12T17:42:48.311Z,5.74
2023-03-12T17:45:38.130Z,5.77
2023-03-12T17:48:26.936Z,5.62
2023-03-12T17:51:14.947Z,5.80
2023-03-12T17:54:02.363Z,5.79
2023-03-12T17:56:50.164Z,5.64
2023-03-12T17:59:38.556Z,5.68
2023-03-12T18:02:26.893Z,5.70
2023-03-12T18:05:18.631Z,5.64
2023-03-12T18:08:06.692Z,5.49
2023-03-12T18:10:54.723Z,5.65
2023-03-12T18:13:42.676Z,5.53
2023-03-12T18:16:30.707Z,5.79
2023-03-12T18:19:19.501Z,5.83
2023-03-12T18:22:07.540Z,5.67
2023-03-12T18:24:55.337Z,5.70
2023-03-12T18:27:43.535Z,5.64
2023-03-12T18:30:33.242Z,5.64
2023-03-12T18:33:21.505Z,5.62
2023-03-12T18:36:10.241Z,5.62
2023-03-12T18:39:00.155Z,5.64
2023-03-12T18:41:48.575Z,5.63
2023-03-12T18:44:36.656Z,5.30
2023-03-12T18:47:24.458Z,5.55
2023-03-12T18:50:13.430Z,5.60
2023-03-12T18:53:01.456Z,5.51
2023-03-12T18:55:56.955Z,5.51
2023-03-12T18:58:44.795Z,5.59
2023-03-12T19:01:33.383Z,5.51
2023-03-12T19:04:21.745Z,5.62
2023-03-12T19:07:14.191Z,5.49
2023-03-12T19:10:02.400Z,5.45
2023-03-12T19:12:53.149Z,5.38
2023-03-12T19:15:42.092Z,5.45
2023-03-12T19:18:32.588Z,5.38
2023-03-12T19:21:24.793Z,5.35
2023-03-12T19:24:13.968Z,5.51
2023-03-12T19:27:02.220Z,5.55
2023-03-12T19:29:51.270Z,5.46
2023-03-12T19:32:44.149Z,5.56
2023-03-12T19:35:32.975Z,5.68
2023-03-12T19:38:21.586Z,5.50
2023-03-12T19:41:10.197Z,5.61
2023-03-12T19:43:58.371Z,5.45
2023-03-12T19:46:47.043Z,5.52
2023-03-12T19:49:38.246Z,5.35
2023-03-12T19:52:29.034Z,5.35
2023-03-12T19:55:17.807Z,5.21
2023-03-12T19:58:06.336Z,5.24
2023-03-12T20:00:54.710Z,5.17
2023-03-12T20:03:43.833Z,5.00
2023-03-12T20:06:31.841Z,4.90
2023-03-12T20:09:20.015Z,4.81
2023-03-12T20:12:11.052Z,4.60
2023-03-12T20:14:59.597Z,4.51
2023-03-12T20:17:51.982Z,4.56
2023-03-12T20:20:43.450Z,4.85
2023-03-12T20:23:31.732Z,4.68
2023-03-12T20:29:22.511Z,5.09
2023-03-12T20:32:12.694Z,5.05
2023-03-12T20:35:02.152Z,5.00
2023-03-12T20:37:52.249Z,5.13
2023-03-12T20:40:40.399Z,5.11
2023-03-12T20:43:30.437Z,5.04
2023-03-12T20:46:19.767Z,5.00
2023-03-12T20:49:13.817Z,5.10
2023-03-12T20:52:01.724Z,5.11
2023-03-12T20:54:49.310Z,5.24
2023-03-12T20:57:37.386Z,5.21
2023-03-12T21:00:25.407Z,5.20
2023-03-12T21:03:14.615Z,4.91
2023-03-12T21:06:05.645Z,5.09
2023-03-12T21:08:56.829Z,4.98
2023-03-12T21:11:44.888Z,5.03
2023-03-12T21:14:32.722Z,5.16
2023-03-12T21:17:20.381Z,5.16
2023-03-12T21:20:13.529Z,5.22
2023-03-12T21:23:01.120Z,5.30
2023-03-12T21:25:48.316Z,5.29
2023-03-12T21:28:36.150Z,5.17
2023-03-12T21:31:24.255Z,5.25
2023-03-12T21:34:12.017Z,5.16
2023-03-12T21:36:59.236Z,5.10
2023-03-12T21:39:46.839Z,5.05
2023-03-12T21:42:34.348Z,4.94
2023-03-12T21:45:21.697Z,5.05
2023-03-12T21:48:08.739Z,4.98
2023-03-12T21:50:55.860Z,4.92
2023-03-12T21:53:43.216Z,4.85
2023-03-12T21:56:30.466Z,5.03
2023-03-12T21:59:17.534Z,5.18
2023-03-12T22:02:04.711Z,5.13
2023-03-12T22:04:51.852Z,5.08
2023-03-12T22:07:39.616Z,5.24
2023-03-12T22:10:26.697Z,5.34
2023-03-12T22:13:13.770Z,5.32
2023-03-12T22:16:03.950Z,5.35
2023-03-12T22:18:51.283Z,5.39
2023-03-12T22:21:38.693Z,5.28
2023-03-12T22:24:25.812Z,5.07
2023-03-12T22:27:12.906Z,5.56
2023-03-12T22:29:59.986Z,5.49
2023-03-12T22:32:47.188Z,5.60
2023-03-12T22:35:34.319Z,5.69
2023-03-12T22:38:22.165Z,5.53
2023-03-12T22:41:13.322Z,5.45
2023-03-12T22:44:06.107Z,5.34
2023-03-12T22:46:53.173Z,5.45
2023-03-12T22:49:40.231Z,5.41
2023-03-12T22:52:27.284Z,5.31
2023-03-12T22:55:14.417Z,5.14
2023-03-12T22:58:01.503Z,5.10
2023-03-12T23:00:48.526Z,5.06
2023-03-12T23:03:37.171Z,5.13
2023-03-12T23:06:27.040Z,5.30
2023-03-12T23:09:14.391Z,5.10
2023-03-12T23:12:01.413Z,5.00
2023-03-12T23:14:48.591Z,5.24
2023-03-12T23:17:35.810Z,5.12
2023-03-12T23:20:23.837Z,4.88
2023-03-12T23:23:11.736Z,4.84
2023-03-12T23:26:00.607Z,4.76
2023-03-12T23:28:47.776Z,4.76
2023-03-12T23:31:34.890Z,4.73
2023-03-12T23:34:22.562Z,4.67
2023-03-12T23:37:09.720Z,4.61
2023-03-12T23:39:56.753Z,4.63
2023-03-12T23:42:44.313Z,4.58
2023-03-12T23:45:31.305Z,4.32
2023-03-12T23:48:18.459Z,4.40
2023-03-12T23:51:08.788Z,4.38
2023-03-12T23:54:05.470Z,4.23
2023-03-12T23:56:52.606Z,4.21
2023-03-12T23:59:39.674Z,4.19
